sensor_id;sensor_type;location;lat;lon;timestamp;temperature;humidity
8231;DHT22;4156;50.908;6.974;2023-09-12T00:00:47;25.50;99.90
8231;DHT22;4156;50.908;6.974;2023-09-12T00:03:12;25.50;99.90
8231;DHT22;4156;50.908;6.974;2023-09-12T00:05:38;25.40;99.90
8231;DHT22;4156;50.908;6.974;2023-09-12T00:08:04;25.50;99.90
8231;DHT22;4156;50.908;6.974;2023-09-12T00:10:30;25.50;99.90
8231;DHT22;4156;50.908;6.974;2023-09-12T00:12:55;25.40;99.90
8231;DHT22;4156;50.908;6.974;2023-09-12T00:15:21;25.40;99.90
8231;DHT22;4156;50.908;6.974;2023-09-12T00:17:47;25.30;99.90
8231;DHT22;4156;50.908;6.974;2023-09-12T00:20:15;25.30;99.90
8231;DHT22;4156;50.908;6.974;2023-09-12T00:22:41;25.20;99.90
8231;DHT22;4156;50.908;6.974;2023-09-12T00:25:06;25.20;99.90
8231;DHT22;4156;50.908;6.974;2023-09-12T00:27:32;25.10;99.90
8231;DHT22;4156;50.908;6.974;2023-09-12T00:29:57;25.00;99.90
8231;DHT22;4156;50.908;6.974;2023-09-12T00:32:23;25.00;99.90
8231;DHT22;4156;50.908;6.974;2023-09-12T00:34:48;24.90;99.90
8231;DHT22;4156;50.908;6.974;2023-09-12T00:37:14;24.80;99.90
8231;DHT22;4156;50.908;6.974;2023-09-12T00:39:40;24.80;99.90
8231;DHT22;4156;50.908;6.974;2023-09-12T00:42:05;24.70;99.90
8231;DHT22;4156;50.908;6.974;2023-09-12T00:44:33;24.70;99.90
8231;DHT22;4156;50.908;6.974;2023-09-12T00:46:59;24.60;99.90
8231;DHT22;4156;50.908;6.974;2023-09-12T00:49:26;24.60;99.90
8231;DHT22;4156;50.908;6.974;2023-09-12T00:51:53;24.50;99.90
8231;DHT22;4156;50.908;6.974;2023-09-12T00:54:20;24.50;99.90
8231;DHT22;4156;50.908;6.974;2023-09-12T00:56:45;24.40;99.90
8231;DHT22;4156;50.908;6.974;2023-09-12T00:59:11;24.40;99.90
8231;DHT22;4156;50.908;6.974;2023-09-12T01:01:37;24.40;99.90
8231;DHT22;4156;50.908;6.974;2023-09-12T01:04:03;24.40;99.90
8231;DHT22;4156;50.908;6.974;2023-09-12T01:06:29;24.40;99.90
8231;DHT22;4156;50.908;6.974;2023-09-12T01:08:57;24.40;99.90
8231;DHT22;4156;50.908;6.974;2023-09-12T01:11:22;24.40;99.90
8231;DHT22;4156;50.908;6.974;2023-09-12T01:13:48;24.40;99.90
8231;DHT22;4156;50.908;6.974;2023-09-12T01:16:14;24.30;99.90
8231;DHT22;4156;50.908;6.974;2023-09-12T01:18:39;24.30;99.90
8231;DHT22;4156;50.908;6.974;2023-09-12T01:29:44;24.20;99.90
8231;DHT22;4156;50.908;6.974;2023-09-12T01:32:12;24.20;99.90
8231;DHT22;4156;50.908;6.974;2023-09-12T01:34:37;24.20;99.90
8231;DHT22;4156;50.908;6.974;2023-09-12T01:37:03;24.20;99.90
8231;DHT22;4156;50.908;6.974;2023-09-12T01:39:28;24.10;99.90
8231;DHT22;4156;50.908;6.974;2023-09-12T01:41:54;24.10;99.90
8231;DHT22;4156;50.908;6.974;2023-09-12T01:44:22;24.10;99.90
8231;DHT22;4156;50.908;6.974;2023-09-12T01:46:49;24.10;99.90
8231;DHT22;4156;50.908;6.974;2023-09-12T01:49:20;24.10;99.90
8231;DHT22;4156;50.908;6.974;2023-09-12T01:51:46;24.10;99.90
8231;DHT22;4156;50.908;6.974;2023-09-12T01:54:12;24.10;99.90
8231;DHT22;4156;50.908;6.974;2023-09-12T01:56:39;24.10;99.90
8231;DHT22;4156;50.908;6.974;2023-09-12T01:59:05;24.10;99.90
8231;DHT22;4156;50.908;6.974;2023-09-12T02:01:31;24.00;99.90
8231;DHT22;4156;50.908;6.974;2023-09-12T02:03:57;24.00;99.90
8231;DHT22;4156;50.908;6.974;2023-09-12T02:06:23;24.00;99.90
8231;DHT22;4156;50.908;6.974;2023-09-12T02:08:49;24.00;99.90
8231;DHT22;4156;50.908;6.974;2023-09-12T02:11:14;23.90;99.90
8231;DHT22;4156;50.908;6.974;2023-09-12T02:13:40;23.90;99.90
8231;DHT22;4156;50.908;6.974;2023-09-12T02:16:05;23.80;99.90
8231;DHT22;4156;50.908;6.974;2023-09-12T02:18:31;23.80;99.90
8231;DHT22;4156;50.908;6.974;2023-09-12T02:20:58;23.80;99.90
8231;DHT22;4156;50.908;6.974;2023-09-12T02:23:24;23.80;99.90
8231;DHT22;4156;50.908;6.974;2023-09-12T02:25:49;23.80;99.90
8231;DHT22;4156;50.908;6.974;2023-09-12T02:28:15;23.80;99.90
8231;DHT22;4156;50.908;6.974;2023-09-12T02:30:40;23.80;99.90
8231;DHT22;4156;50.908;6.974;2023-09-12T02:33:06;23.90;99.90
8231;DHT22;4156;50.908;6.974;2023-09-12T02:35:32;23.90;99.90
8231;DHT22;4156;50.908;6.974;2023-09-12T02:37:57;23.90;99.90
8231;DHT22;4156;50.908;6.974;2023-09-12T02:40:23;23.90;99.90
8231;DHT22;4156;50.908;6.974;2023-09-12T02:42:49;23.90;99.90
8231;DHT22;4156;50.908;6.974;2023-09-12T02:45:14;23.80;99.90
8231;DHT22;4156;50.908;6.974;2023-09-12T02:47:40;23.80;99.90
8231;DHT22;4156;50.908;6.974;2023-09-12T02:50:06;23.80;99.90
8231;DHT22;4156;50.908;6.974;2023-09-12T02:52:31;23.70;99.90
8231;DHT22;4156;50.908;6.974;2023-09-12T02:54:57;23.70;99.90
8231;DHT22;4156;50.908;6.974;2023-09-12T02:57:22;23.70;99.90
8231;DHT22;4156;50.908;6.974;2023-09-12T02:59:48;23.70;99.90
8231;DHT22;4156;50.908;6.974;2023-09-12T03:02:13;23.80;99.90
8231;DHT22;4156;50.908;6.974;2023-09-12T03:04:39;23.80;99.90
8231;DHT22;4156;50.908;6.974;2023-09-12T03:07:05;23.80;99.90
8231;DHT22;4156;50.908;6.974;2023-09-12T03:09:30;23.80;99.90
8231;DHT22;4156;50.908;6.974;2023-09-12T03:11:56;23.90;99.90
8231;DHT22;4156;50.908;6.974;2023-09-12T03:14:21;23.90;99.90
8231;DHT22;4156;50.908;6.974;2023-09-12T03:16:47;23.80;99.90
8231;DHT22;4156;50.908;6.974;2023-09-12T03:19:12;23.90;99.90
8231;DHT22;4156;50.908;6.974;2023-09-12T03:21:38;23.90;99.90
8231;DHT22;4156;50.908;6.974;2023-09-12T03:24:04;24.00;99.90
8231;DHT22;4156;50.908;6.974;2023-09-12T03:26:30;24.00;99.90
8231;DHT22;4156;50.908;6.974;2023-09-12T03:28:55;23.90;99.90
8231;DHT22;4156;50.908;6.974;2023-09-12T03:31:21;23.80;99.90
8231;DHT22;4156;50.908;6.974;2023-09-12T03:33:46;23.90;99.90
8231;DHT22;4156;50.908;6.974;2023-09-12T03:36:16;23.90;99.90
8231;DHT22;4156;50.908;6.974;2023-09-12T03:38:42;23.80;99.90
8231;DHT22;4156;50.908;6.974;2023-09-12T03:41:07;23.80;99.90
8231;DHT22;4156;50.908;6.974;2023-09-12T03:43:33;23.80;99.90
8231;DHT22;4156;50.908;6.974;2023-09-12T03:45:59;23.80;99.90
8231;DHT22;4156;50.908;6.974;2023-09-12T03:48:24;23.70;99.90
8231;DHT22;4156;50.908;6.974;2023-09-12T03:50:50;23.70;99.90
8231;DHT22;4156;50.908;6.974;2023-09-12T03:53:16;23.70;99.90
8231;DHT22;4156;50.908;6.974;2023-09-12T03:55:42;23.70;99.90
8231;DHT22;4156;50.908;6.974;2023-09-12T03:58:07;23.70;99.90
8231;DHT22;4156;50.908;6.974;2023-09-12T04:00:33;23.60;99.90
8231;DHT22;4156;50.908;6.974;2023-09-12T04:02:58;23.60;99.90
8231;DHT22;4156;50.908;6.974;2023-09-12T04:05:25;23.60;99.90
8231;DHT22;4156;50.908;6.974;2023-09-12T04:07:51;23.70;99.90
8231;DHT22;4156;50.908;6.974;2023-09-12T04:10:18;23.60;99.90
8231;DHT22;4156;50.908;6.974;2023-09-12T04:12:44;23.60;99.90
8231;DHT22;4156;50.908;6.974;2023-09-12T04:15:09;23.50;99.90
8231;DHT22;4156;50.908;6.974;2023-09-12T04:17:35;23.50;99.90
8231;DHT22;4156;50.908;6.974;2023-09-12T04:20:00;23.50;99.90
8231;DHT22;4156;50.908;6.974;2023-09-12T04:22:26;23.50;99.90
8231;DHT22;4156;50.908;6.974;2023-09-12T04:24:53;23.50;99.90
8231;DHT22;4156;50.908;6.974;2023-09-12T04:27:19;23.50;99.90
8231;DHT22;4156;50.908;6.974;2023-09-12T04:29:44;23.50;99.90
8231;DHT22;4156;50.908;6.974;2023-09-12T04:32:11;23.50;99.90
8231;DHT22;4156;50.908;6.974;2023-09-12T04:34:36;23.60;99.90
8231;DHT22;4156;50.908;6.974;2023-09-12T04:37:02;23.50;99.90
8231;DHT22;4156;50.908;6.974;2023-09-12T04:39:28;23.50;99.90
8231;DHT22;4156;50.908;6.974;2023-09-12T04:41:54;23.60;99.90
8231;DHT22;4156;50.908;6.974;2023-09-12T04:44:19;23.60;99.90
8231;DHT22;4156;50.908;6.974;2023-09-12T04:46:45;23.70;99.90
8231;DHT22;4156;50.908;6.974;2023-09-12T04:49:11;23.60;99.90
8231;DHT22;4156;50.908;6.974;2023-09-12T04:51:37;23.60;99.90
8231;DHT22;4156;50.908;6.974;2023-09-12T04:54:03;23.60;99.90
8231;DHT22;4156;50.908;6.974;2023-09-12T04:56:29;23.60;99.90
8231;DHT22;4156;50.908;6.974;2023-09-12T04:58:54;23.60;99.90
8231;DHT22;4156;50.908;6.974;2023-09-12T05:01:20;23.60;99.90
8231;DHT22;4156;50.908;6.974;2023-09-12T05:03:45;23.60;99.90
8231;DHT22;4156;50.908;6.974;2023-09-12T05:06:12;23.60;99.90
8231;DHT22;4156;50.908;6.974;2023-09-12T05:08:37;23.60;99.90
8231;DHT22;4156;50.908;6.974;2023-09-12T05:11:03;23.60;99.90
8231;DHT22;4156;50.908;6.974;2023-09-12T05:13:29;23.60;99.90
8231;DHT22;4156;50.908;6.974;2023-09-12T05:15:54;23.50;99.90
8231;DHT22;4156;50.908;6.974;2023-09-12T05:18:21;23.50;99.90
8231;DHT22;4156;50.908;6.974;2023-09-12T05:20:47;23.50;99.90
8231;DHT22;4156;50.908;6.974;2023-09-12T05:23:12;23.40;99.90
8231;DHT22;4156;50.908;6.974;2023-09-12T05:25:38;23.50;99.90
8231;DHT22;4156;50.908;6.974;2023-09-12T05:28:04;23.50;99.90
8231;DHT22;4156;50.908;6.974;2023-09-12T05:30:30;23.50;99.90
8231;DHT22;4156;50.908;6.974;2023-09-12T05:32:55;23.50;99.90
8231;DHT22;4156;50.908;6.974;2023-09-12T05:35:21;23.60;99.90
8231;DHT22;4156;50.908;6.974;2023-09-12T05:37:46;23.70;99.90
8231;DHT22;4156;50.908;6.974;2023-09-12T05:40:13;23.70;99.90
8231;DHT22;4156;50.908;6.974;2023-09-12T05:42:38;23.80;99.90
8231;DHT22;4156;50.908;6.974;2023-09-12T05:45:05;23.80;99.90
8231;DHT22;4156;50.908;6.974;2023-09-12T05:47:31;23.80;99.90
8231;DHT22;4156;50.908;6.974;2023-09-12T05:49:57;23.80;99.90
8231;DHT22;4156;50.908;6.974;2023-09-12T05:52:24;23.80;99.90
8231;DHT22;4156;50.908;6.974;2023-09-12T05:54:50;23.90;99.90
8231;DHT22;4156;50.908;6.974;2023-09-12T05:57:16;23.90;99.90
8231;DHT22;4156;50.908;6.974;2023-09-12T05:59:41;23.90;99.90
8231;DHT22;4156;50.908;6.974;2023-09-12T06:02:07;24.00;99.90
8231;DHT22;4156;50.908;6.974;2023-09-12T06:04:35;24.00;99.90
8231;DHT22;4156;50.908;6.974;2023-09-12T06:07:02;23.90;99.90
8231;DHT22;4156;50.908;6.974;2023-09-12T06:09:28;23.90;99.90
8231;DHT22;4156;50.908;6.974;2023-09-12T06:11:54;24.00;99.90
8231;DHT22;4156;50.908;6.974;2023-09-12T06:14:19;24.00;99.90
8231;DHT22;4156;50.908;6.974;2023-09-12T06:16:45;24.10;99.90
8231;DHT22;4156;50.908;6.974;2023-09-12T06:19:10;24.20;99.90
8231;DHT22;4156;50.908;6.974;2023-09-12T06:21:36;24.30;99.90
8231;DHT22;4156;50.908;6.974;2023-09-12T06:24:10;24.30;99.90
8231;DHT22;4156;50.908;6.974;2023-09-12T06:26:36;24.40;99.90
8231;DHT22;4156;50.908;6.974;2023-09-12T06:29:02;24.40;99.90
8231;DHT22;4156;50.908;6.974;2023-09-12T06:31:28;24.40;99.90
8231;DHT22;4156;50.908;6.974;2023-09-12T06:33:53;24.40;99.90
8231;DHT22;4156;50.908;6.974;2023-09-12T06:36:19;24.50;99.90
8231;DHT22;4156;50.908;6.974;2023-09-12T06:38:44;24.50;99.90
8231;DHT22;4156;50.908;6.974;2023-09-12T06:41:10;24.50;99.90
8231;DHT22;4156;50.908;6.974;2023-09-12T06:43:35;24.50;99.90
8231;DHT22;4156;50.908;6.974;2023-09-12T06:46:01;24.50;99.90
8231;DHT22;4156;50.908;6.974;2023-09-12T06:48:26;24.60;99.90
8231;DHT22;4156;50.908;6.974;2023-09-12T06:50:54;24.60;99.90
8231;DHT22;4156;50.908;6.974;2023-09-12T06:53:19;24.70;99.90
8231;DHT22;4156;50.908;6.974;2023-09-12T06:55:45;24.70;99.90
8231;DHT22;4156;50.908;6.974;2023-09-12T06:58:11;24.80;99.90
8231;DHT22;4156;50.908;6.974;2023-09-12T07:00:37;24.80;99.90
8231;DHT22;4156;50.908;6.974;2023-09-12T07:03:03;24.80;99.90
8231;DHT22;4156;50.908;6.974;2023-09-12T07:05:28;24.90;99.90
8231;DHT22;4156;50.908;6.974;2023-09-12T07:07:54;24.80;99.90
8231;DHT22;4156;50.908;6.974;2023-09-12T07:10:19;24.80;99.90
8231;DHT22;4156;50.908;6.974;2023-09-12T07:12:45;24.80;99.90
8231;DHT22;4156;50.908;6.974;2023-09-12T07:15:11;24.80;99.90
8231;DHT22;4156;50.908;6.974;2023-09-12T07:17:36;24.80;99.90
8231;DHT22;4156;50.908;6.974;2023-09-12T07:20:02;24.70;99.90
8231;DHT22;4156;50.908;6.974;2023-09-12T07:22:28;24.80;99.90
8231;DHT22;4156;50.908;6.974;2023-09-12T07:24:54;24.80;99.90
8231;DHT22;4156;50.908;6.974;2023-09-12T07:27:19;24.80;99.90
8231;DHT22;4156;50.908;6.974;2023-09-12T07:29:45;24.90;99.90
8231;DHT22;4156;50.908;6.974;2023-09-12T07:32:10;24.90;99.90
8231;DHT22;4156;50.908;6.974;2023-09-12T07:34:36;24.90;99.90
8231;DHT22;4156;50.908;6.974;2023-09-12T07:37:03;24.90;99.90
8231;DHT22;4156;50.908;6.974;2023-09-12T07:39:29;24.90;99.90
8231;DHT22;4156;50.908;6.974;2023-09-12T07:41:54;25.00;99.90
8231;DHT22;4156;50.908;6.974;2023-09-12T07:44:20;25.00;99.90
8231;DHT22;4156;50.908;6.974;2023-09-12T07:46:46;25.10;99.90
8231;DHT22;4156;50.908;6.974;2023-09-12T07:49:11;25.10;99.90
8231;DHT22;4156;50.908;6.974;2023-09-12T07:51:37;25.10;99.90
8231;DHT22;4156;50.908;6.974;2023-09-12T07:54:03;25.10;99.90
8231;DHT22;4156;50.908;6.974;2023-09-12T07:56:28;25.20;99.90
8231;DHT22;4156;50.908;6.974;2023-09-12T07:58:54;25.20;99.90
8231;DHT22;4156;50.908;6.974;2023-09-12T08:01:21;25.20;99.90
8231;DHT22;4156;50.908;6.974;2023-09-12T08:03:46;25.20;99.90
8231;DHT22;4156;50.908;6.974;2023-09-12T08:06:12;25.20;99.90
8231;DHT22;4156;50.908;6.974;2023-09-12T08:08:38;25.30;99.90
8231;DHT22;4156;50.908;6.974;2023-09-12T08:11:04;25.30;99.90
8231;DHT22;4156;50.908;6.974;2023-09-12T08:13:30;25.30;99.90
8231;DHT22;4156;50.908;6.974;2023-09-12T08:15:56;25.30;99.90
8231;DHT22;4156;50.908;6.974;2023-09-12T08:18:29;25.40;99.90
8231;DHT22;4156;50.908;6.974;2023-09-12T08:20:55;25.40;99.90
8231;DHT22;4156;50.908;6.974;2023-09-12T08:23:20;25.40;99.90
8231;DHT22;4156;50.908;6.974;2023-09-12T08:25:46;25.40;99.90
8231;DHT22;4156;50.908;6.974;2023-09-12T08:28:11;25.40;99.90
8231;DHT22;4156;50.908;6.974;2023-09-12T08:30:37;25.40;99.90
8231;DHT22;4156;50.908;6.974;2023-09-12T08:33:02;25.40;99.90
8231;DHT22;4156;50.908;6.974;2023-09-12T08:35:29;25.50;99.90
8231;DHT22;4156;50.908;6.974;2023-09-12T08:37:55;25.50;99.90
8231;DHT22;4156;50.908;6.974;2023-09-12T08:40:20;25.50;99.90
8231;DHT22;4156;50.908;6.974;2023-09-12T08:42:46;25.60;99.90
8231;DHT22;4156;50.908;6.974;2023-09-12T08:45:14;25.60;99.90
8231;DHT22;4156;50.908;6.974;2023-09-12T08:47:44;25.60;99.90
8231;DHT22;4156;50.908;6.974;2023-09-12T08:50:15;25.60;99.90
8231;DHT22;4156;50.908;6.974;2023-09-12T08:52:43;25.70;99.90
8231;DHT22;4156;50.908;6.974;2023-09-12T08:55:09;25.70;99.90
8231;DHT22;4156;50.908;6.974;2023-09-12T08:57:40;25.70;99.90
8231;DHT22;4156;50.908;6.974;2023-09-12T09:00:07;25.80;99.90
8231;DHT22;4156;50.908;6.974;2023-09-12T09:02:38;25.80;99.90
8231;DHT22;4156;50.908;6.974;2023-09-12T09:05:06;25.80;99.90
8231;DHT22;4156;50.908;6.974;2023-09-12T09:07:34;25.80;99.90
8231;DHT22;4156;50.908;6.974;2023-09-12T09:10:05;25.80;99.90
8231;DHT22;4156;50.908;6.974;2023-09-12T09:12:35;25.80;99.90
8231;DHT22;4156;50.908;6.974;2023-09-12T09:15:23;25.90;99.90
8231;DHT22;4156;50.908;6.974;2023-09-12T09:17:49;25.90;99.90
8231;DHT22;4156;50.908;6.974;2023-09-12T09:20:33;25.90;99.90
8231;DHT22;4156;50.908;6.974;2023-09-12T09:23:04;26.00;99.90
8231;DHT22;4156;50.908;6.974;2023-09-12T09:25:31;25.90;99.90
8231;DHT22;4156;50.908;6.974;2023-09-12T09:27:57;26.00;99.90
8231;DHT22;4156;50.908;6.974;2023-09-12T09:30:43;26.00;99.90
8231;DHT22;4156;50.908;6.974;2023-09-12T09:33:10;26.00;99.90
8231;DHT22;4156;50.908;6.974;2023-09-12T09:35:36;26.00;99.90
8231;DHT22;4156;50.908;6.974;2023-09-12T09:38:06;26.00;99.90
8231;DHT22;4156;50.908;6.974;2023-09-12T09:40:33;26.00;99.90
8231;DHT22;4156;50.908;6.974;2023-09-12T09:43:00;26.00;99.90
8231;DHT22;4156;50.908;6.974;2023-09-12T09:45:27;26.00;99.90
8231;DHT22;4156;50.908;6.974;2023-09-12T09:47:52;26.10;99.90
8231;DHT22;4156;50.908;6.974;2023-09-12T09:50:21;26.10;99.90
8231;DHT22;4156;50.908;6.974;2023-09-12T09:52:53;26.10;99.90
8231;DHT22;4156;50.908;6.974;2023-09-12T09:55:20;26.10;99.90
8231;DHT22;4156;50.908;6.974;2023-09-12T09:57:45;26.20;99.90
8231;DHT22;4156;50.908;6.974;2023-09-12T10:00:11;26.20;99.90
8231;DHT22;4156;50.908;6.974;2023-09-12T10:02:42;26.20;99.90
8231;DHT22;4156;50.908;6.974;2023-09-12T10:05:10;26.20;99.90
8231;DHT22;4156;50.908;6.974;2023-09-12T10:07:44;26.20;99.90
8231;DHT22;4156;50.908;6.974;2023-09-12T10:10:12;26.20;99.90
8231;DHT22;4156;50.908;6.974;2023-09-12T10:12:50;26.20;99.90
8231;DHT22;4156;50.908;6.974;2023-09-12T10:15:34;26.30;99.90
8231;DHT22;4156;50.908;6.974;2023-09-12T10:18:18;26.30;99.90
8231;DHT22;4156;50.908;6.974;2023-09-12T10:21:03;26.30;99.90
8231;DHT22;4156;50.908;6.974;2023-09-12T10:23:50;26.30;99.90
8231;DHT22;4156;50.908;6.974;2023-09-12T10:26:49;26.30;99.90
8231;DHT22;4156;50.908;6.974;2023-09-12T10:29:30;26.30;99.90
8231;DHT22;4156;50.908;6.974;2023-09-12T10:32:38;26.30;99.90
8231;DHT22;4156;50.908;6.974;2023-09-12T10:35:37;26.40;99.90
8231;DHT22;4156;50.908;6.974;2023-09-12T10:38:23;26.40;99.90
8231;DHT22;4156;50.908;6.974;2023-09-12T10:41:42;26.40;99.90
8231;DHT22;4156;50.908;6.974;2023-09-12T10:44:22;26.40;99.90
8231;DHT22;4156;50.908;6.974;2023-09-12T10:47:01;26.50;99.90
8231;DHT22;4156;50.908;6.974;2023-09-12T10:49:58;26.50;99.90
8231;DHT22;4156;50.908;6.974;2023-09-12T10:52:35;26.50;99.90
8231;DHT22;4156;50.908;6.974;2023-09-12T10:55:18;26.50;99.90
8231;DHT22;4156;50.908;6.974;2023-09-12T10:58:14;26.50;99.90
8231;DHT22;4156;50.908;6.974;2023-09-12T11:01:24;26.50;99.90
8231;DHT22;4156;50.908;6.974;2023-09-12T11:03:53;26.50;99.90
8231;DHT22;4156;50.908;6.974;2023-09-12T11:06:34;26.50;99.90
8231;DHT22;4156;50.908;6.974;2023-09-12T11:09:33;26.50;99.90
8231;DHT22;4156;50.908;6.974;2023-09-12T11:12:52;26.60;99.90
8231;DHT22;4156;50.908;6.974;2023-09-12T11:15:36;26.60;99.90
8231;DHT22;4156;50.908;6.974;2023-09-12T11:18:32;26.60;99.90
8231;DHT22;4156;50.908;6.974;2023-09-12T11:21:32;26.60;99.90
8231;DHT22;4156;50.908;6.974;2023-09-12T11:24:13;26.60;99.90
8231;DHT22;4156;50.908;6.974;2023-09-12T11:27:02;26.60;99.90
8231;DHT22;4156;50.908;6.974;2023-09-12T11:29:53;26.60;99.90
8231;DHT22;4156;50.908;6.974;2023-09-12T11:32:32;26.60;99.90
8231;DHT22;4156;50.908;6.974;2023-09-12T11:35:38;26.70;99.90
8231;DHT22;4156;50.908;6.974;2023-09-12T11:38:14;26.70;99.90
8231;DHT22;4156;50.908;6.974;2023-09-12T11:40:59;26.70;99.90
8231;DHT22;4156;50.908;6.974;2023-09-12T11:43:51;26.70;99.90
8231;DHT22;4156;50.908;6.974;2023-09-12T11:46:52;26.70;99.90
8231;DHT22;4156;50.908;6.974;2023-09-12T11:49:51;26.70;99.90
8231;DHT22;4156;50.908;6.974;2023-09-12T11:53:04;26.70;99.90
8231;DHT22;4156;50.908;6.974;2023-09-12T11:56:04;26.70;99.90
8231;DHT22;4156;50.908;6.974;2023-09-12T11:59:17;26.70;99.90
8231;DHT22;4156;50.908;6.974;2023-09-12T12:01:57;26.70;99.90
8231;DHT22;4156;50.908;6.974;2023-09-12T12:04:51;26.70;99.90
8231;DHT22;4156;50.908;6.974;2023-09-12T12:07:50;26.70;99.90
8231;DHT22;4156;50.908;6.974;2023-09-12T12:10:36;26.70;99.90
8231;DHT22;4156;50.908;6.974;2023-09-12T12:23:23;26.80;99.90
8231;DHT22;4156;50.908;6.974;2023-09-12T12:26:19;26.80;99.90
8231;DHT22;4156;50.908;6.974;2023-09-12T12:29:28;26.80;99.90
8231;DHT22;4156;50.908;6.974;2023-09-12T12:33:09;26.80;99.90
8231;DHT22;4156;50.908;6.974;2023-09-12T12:35:48;26.90;99.90
8231;DHT22;4156;50.908;6.974;2023-09-12T12:38:37;26.90;99.90
8231;DHT22;4156;50.908;6.974;2023-09-12T12:41:52;26.90;99.90
8231;DHT22;4156;50.908;6.974;2023-09-12T12:45:14;26.90;99.90
8231;DHT22;4156;50.908;6.974;2023-09-12T12:48:38;27.00;99.90
8231;DHT22;4156;50.908;6.974;2023-09-12T12:51:33;26.90;99.90
8231;DHT22;4156;50.908;6.974;2023-09-12T12:54:14;26.90;99.90
8231;DHT22;4156;50.908;6.974;2023-09-12T12:56:53;27.00;99.90
8231;DHT22;4156;50.908;6.974;2023-09-12T13:00:05;27.00;99.90
8231;DHT22;4156;50.908;6.974;2023-09-12T13:02:32;27.00;99.90
8231;DHT22;4156;50.908;6.974;2023-09-12T13:05:01;27.00;99.90
8231;DHT22;4156;50.908;6.974;2023-09-12T13:07:43;27.00;99.90
8231;DHT22;4156;50.908;6.974;2023-09-12T13:10:46;27.00;99.90
8231;DHT22;4156;50.908;6.974;2023-09-12T13:13:21;27.00;99.90
8231;DHT22;4156;50.908;6.974;2023-09-12T13:15:53;27.00;99.90
8231;DHT22;4156;50.908;6.974;2023-09-12T13:18:29;27.00;99.90
8231;DHT22;4156;50.908;6.974;2023-09-12T13:21:23;27.00;99.90
8231;DHT22;4156;50.908;6.974;2023-09-12T13:24:04;27.00;99.90
8231;DHT22;4156;50.908;6.974;2023-09-12T13:27:38;27.00;99.90
8231;DHT22;4156;50.908;6.974;2023-09-12T13:30:45;27.00;99.90
8231;DHT22;4156;50.908;6.974;2023-09-12T13:33:19;27.00;99.90
8231;DHT22;4156;50.908;6.974;2023-09-12T13:36:16;27.00;99.90
8231;DHT22;4156;50.908;6.974;2023-09-12T13:38:48;27.00;99.90
8231;DHT22;4156;50.908;6.974;2023-09-12T13:41:57;27.10;99.90
8231;DHT22;4156;50.908;6.974;2023-09-12T13:45:25;27.00;99.90
8231;DHT22;4156;50.908;6.974;2023-09-12T13:47:55;27.10;99.90
8231;DHT22;4156;50.908;6.974;2023-09-12T13:50:33;27.10;99.90
8231;DHT22;4156;50.908;6.974;2023-09-12T13:53:21;27.00;99.90
8231;DHT22;4156;50.908;6.974;2023-09-12T13:59:25;27.10;99.90
8231;DHT22;4156;50.908;6.974;2023-09-12T14:02:26;27.10;99.90
8231;DHT22;4156;50.908;6.974;2023-09-12T14:08:02;27.00;99.90
8231;DHT22;4156;50.908;6.974;2023-09-12T14:11:28;27.10;99.90
8231;DHT22;4156;50.908;6.974;2023-09-12T14:14:15;27.10;99.90
8231;DHT22;4156;50.908;6.974;2023-09-12T14:16:57;27.00;99.90
8231;DHT22;4156;50.908;6.974;2023-09-12T14:20:01;27.00;99.90
8231;DHT22;4156;50.908;6.974;2023-09-12T14:22:36;27.00;99.90
8231;DHT22;4156;50.908;6.974;2023-09-12T14:25:40;27.00;99.90
8231;DHT22;4156;50.908;6.974;2023-09-12T14:28:35;27.00;99.90
8231;DHT22;4156;50.908;6.974;2023-09-12T14:31:02;27.10;99.90
8231;DHT22;4156;50.908;6.974;2023-09-12T14:33:40;27.00;99.90
8231;DHT22;4156;50.908;6.974;2023-09-12T14:36:45;27.10;99.90
8231;DHT22;4156;50.908;6.974;2023-09-12T14:39:15;27.10;99.90
8231;DHT22;4156;50.908;6.974;2023-09-12T14:42:13;27.10;99.90
8231;DHT22;4156;50.908;6.974;2023-09-12T14:45:14;27.10;99.90
8231;DHT22;4156;50.908;6.974;2023-09-12T14:47:53;27.10;99.90
8231;DHT22;4156;50.908;6.974;2023-09-12T14:50:43;27.10;99.90
8231;DHT22;4156;50.908;6.974;2023-09-12T14:53:48;27.10;99.90
8231;DHT22;4156;50.908;6.974;2023-09-12T14:56:23;27.10;99.90
8231;DHT22;4156;50.908;6.974;2023-09-12T14:59:31;27.10;99.90
8231;DHT22;4156;50.908;6.974;2023-09-12T15:09:56;27.20;99.90
8231;DHT22;4156;50.908;6.974;2023-09-12T15:12:40;27.10;99.90
8231;DHT22;4156;50.908;6.974;2023-09-12T15:15:32;27.20;99.90
8231;DHT22;4156;50.908;6.974;2023-09-12T15:18:31;27.20;99.90
8231;DHT22;4156;50.908;6.974;2023-09-12T15:21:16;27.20;99.90
8231;DHT22;4156;50.908;6.974;2023-09-12T15:24:14;27.20;99.90
8231;DHT22;4156;50.908;6.974;2023-09-12T15:26:42;27.20;99.90
8231;DHT22;4156;50.908;6.974;2023-09-12T15:29:38;27.20;99.90
8231;DHT22;4156;50.908;6.974;2023-09-12T15:32:17;27.10;99.90
8231;DHT22;4156;50.908;6.974;2023-09-12T15:35:12;27.10;99.90
8231;DHT22;4156;50.908;6.974;2023-09-12T15:38:04;27.10;99.90
8231;DHT22;4156;50.908;6.974;2023-09-12T15:41:12;27.10;99.90
8231;DHT22;4156;50.908;6.974;2023-09-12T15:44:29;27.10;99.90
8231;DHT22;4156;50.908;6.974;2023-09-12T15:47:31;27.10;99.90
8231;DHT22;4156;50.908;6.974;2023-09-12T15:50:11;27.10;99.90
8231;DHT22;4156;50.908;6.974;2023-09-12T15:53:01;27.10;99.90
8231;DHT22;4156;50.908;6.974;2023-09-12T15:56:19;27.00;99.90
8231;DHT22;4156;50.908;6.974;2023-09-12T15:59:50;27.10;99.90
8231;DHT22;4156;50.908;6.974;2023-09-12T16:02:44;27.00;99.90
8231;DHT22;4156;50.908;6.974;2023-09-12T16:06:19;27.00;99.90
8231;DHT22;4156;50.908;6.974;2023-09-12T16:09:19;27.10;99.90
8231;DHT22;4156;50.908;6.974;2023-09-12T16:11:49;27.00;99.90
8231;DHT22;4156;50.908;6.974;2023-09-12T16:14:16;27.10;99.90
8231;DHT22;4156;50.908;6.974;2023-09-12T16:17:06;27.00;99.90
8231;DHT22;4156;50.908;6.974;2023-09-12T16:19:40;27.00;99.90
8231;DHT22;4156;50.908;6.974;2023-09-12T16:22:07;27.00;99.90
8231;DHT22;4156;50.908;6.974;2023-09-12T16:24:35;27.10;99.90
8231;DHT22;4156;50.908;6.974;2023-09-12T16:27:00;27.00;99.90
8231;DHT22;4156;50.908;6.974;2023-09-12T16:29:26;27.00;99.90
8231;DHT22;4156;50.908;6.974;2023-09-12T16:31:52;27.00;99.90
8231;DHT22;4156;50.908;6.974;2023-09-12T16:34:18;27.00;99.90
8231;DHT22;4156;50.908;6.974;2023-09-12T16:36:44;27.00;99.90
8231;DHT22;4156;50.908;6.974;2023-09-12T16:39:10;27.00;99.90
8231;DHT22;4156;50.908;6.974;2023-09-12T16:41:35;27.00;99.90
8231;DHT22;4156;50.908;6.974;2023-09-12T16:44:01;26.90;99.90
8231;DHT22;4156;50.908;6.974;2023-09-12T16:46:27;27.00;99.90
8231;DHT22;4156;50.908;6.974;2023-09-12T16:48:53;27.10;99.90
8231;DHT22;4156;50.908;6.974;2023-09-12T16:51:19;27.00;99.90
8231;DHT22;4156;50.908;6.974;2023-09-12T16:53:44;27.00;99.90
8231;DHT22;4156;50.908;6.974;2023-09-12T16:56:10;27.00;99.90
8231;DHT22;4156;50.908;6.974;2023-09-12T16:58:35;26.90;99.90
8231;DHT22;4156;50.908;6.974;2023-09-12T17:01:01;27.00;99.90
8231;DHT22;4156;50.908;6.974;2023-09-12T17:03:27;26.90;99.90
8231;DHT22;4156;50.908;6.974;2023-09-12T17:05:52;26.90;99.90
8231;DHT22;4156;50.908;6.974;2023-09-12T17:08:18;26.80;99.90
8231;DHT22;4156;50.908;6.974;2023-09-12T17:10:43;26.90;99.90
8231;DHT22;4156;50.908;6.974;2023-09-12T17:13:09;26.70;99.90
8231;DHT22;4156;50.908;6.974;2023-09-12T17:15:36;26.70;99.90
8231;DHT22;4156;50.908;6.974;2023-09-12T17:18:04;26.70;99.90
8231;DHT22;4156;50.908;6.974;2023-09-12T17:20:29;26.70;99.90